createdAt,value
2023-05-01T00:01:05.915Z,10.61
2023-05-01T00:03:34.000Z,10.59
2023-05-01T00:06:03.236Z,10.56
2023-05-01T00:08:32.326Z,10.55
2023-05-01T00:11:04.100Z,10.55
2023-05-01T00:13:31.692Z,10.43
2023-05-01T00:15:59.241Z,10.50
2023-05-01T00:18:26.742Z,10.55
2023-05-01T00:20:54.258Z,10.50
2023-05-01T00:23:21.707Z,10.44
2023-05-01T00:25:50.553Z,10.41
2023-05-01T00:28:19.320Z,10.34
2023-05-01T00:30:47.143Z,10.24
2023-05-01T00:33:14.830Z,10.33
2023-05-01T00:35:44.860Z,10.32
2023-05-01T00:38:12.407Z,10.30
2023-05-01T00:40:43.633Z,10.22
2023-05-01T00:43:13.653Z,10.30
2023-05-01T00:45:45.236Z,10.18
2023-05-01T00:48:12.996Z,10.25
2023-05-01T00:50:40.681Z,10.13
2023-05-01T00:53:08.183Z,10.18
2023-05-01T00:55:36.650Z,10.26
2023-05-01T00:58:05.634Z,10.18
2023-05-01T01:00:34.457Z,10.05
2023-05-01T01:03:02.316Z,10.11
2023-05-01T01:05:31.585Z,10.01
2023-05-01T01:08:06.881Z,9.93
2023-05-01T01:10:41.260Z,9.97
2023-05-01T01:13:15.995Z,10.11
2023-05-01T01:15:46.986Z,9.97
2023-05-01T01:18:20.276Z,9.97
2023-05-01T01:20:53.153Z,9.96
2023-05-01T01:23:43.943Z,9.67
2023-05-01T01:26:50.420Z,9.55
2023-05-01T01:29:32.556Z,9.82
2023-05-01T01:32:10.247Z,9.55
2023-05-01T01:34:45.208Z,9.81
2023-05-01T01:37:18.245Z,9.47
2023-05-01T01:39:54.027Z,9.70
2023-05-01T01:42:27.409Z,9.75
2023-05-01T01:44:57.162Z,9.77
2023-05-01T01:47:29.145Z,9.22
2023-05-01T01:50:01.199Z,9.63
2023-05-01T01:52:30.170Z,9.73
2023-05-01T01:55:06.315Z,9.69
2023-05-01T01:57:35.984Z,9.16
2023-05-01T02:00:08.743Z,9.66
2023-05-01T02:02:38.077Z,9.66
2023-05-01T02:05:08.945Z,9.49
2023-05-01T02:07:40.403Z,9.59
2023-05-01T02:10:10.663Z,9.31
2023-05-01T02:12:38.636Z,9.13
2023-05-01T02:15:08.579Z,9.32
2023-05-01T02:17:37.480Z,9.52
2023-05-01T02:20:08.506Z,8.94
2023-05-01T02:22:37.650Z,9.43
2023-05-01T02:25:07.227Z,9.44
2023-05-01T02:27:39.106Z,9.47
2023-05-01T02:30:08.039Z,8.51
2023-05-01T02:32:36.387Z,9.08
2023-05-01T02:35:03.985Z,9.19
2023-05-01T02:37:33.117Z,8.98
2023-05-01T02:40:00.642Z,9.23
2023-05-01T02:42:29.687Z,9.23
2023-05-01T02:45:00.872Z,8.88
2023-05-01T02:47:31.058Z,9.19
2023-05-01T02:50:01.169Z,9.25
2023-05-01T02:52:29.763Z,9.34
2023-05-01T02:54:58.807Z,9.30
2023-05-01T02:57:26.812Z,9.29
2023-05-01T02:59:54.493Z,9.27
2023-05-01T03:02:22.162Z,8.91
2023-05-01T03:04:49.890Z,9.18
2023-05-01T03:07:17.564Z,9.04
2023-05-01T03:09:45.015Z,9.25
2023-05-01T03:12:13.937Z,9.22
2023-05-01T03:14:41.379Z,9.17
2023-05-01T03:17:08.798Z,9.16
2023-05-01T03:19:37.324Z,9.20
2023-05-01T03:22:04.923Z,9.17
2023-05-01T03:24:32.483Z,9.09
2023-05-01T03:27:00.111Z,9.08
2023-05-01T03:29:29.207Z,9.09
2023-05-01T03:31:57.675Z,9.00
2023-05-01T03:34:25.162Z,9.09
2023-05-01T03:36:52.629Z,8.96
2023-05-01T03:39:20.122Z,9.08
2023-05-01T03:41:47.559Z,9.02
2023-05-01T03:44:15.138Z,9.01
2023-05-01T03:46:44.379Z,8.95
2023-05-01T03:49:12.700Z,8.92
2023-05-01T03:51:40.164Z,8.65
2023-05-01T03:54:07.916Z,8.07
2023-05-01T03:56:36.633Z,8.14
2023-05-01T03:59:04.093Z,8.38
2023-05-01T04:01:33.485Z,8.77
2023-05-01T04:04:03.496Z,8.85
2023-05-01T04:06:31.165Z,8.75
2023-05-01T04:08:58.622Z,8.88
2023-05-01T04:11:26.117Z,8.91
2023-05-01T04:13:53.570Z,8.94
2023-05-01T04:16:21.174Z,8.91
2023-05-01T04:18:48.939Z,8.86
2023-05-01T04:21:18.711Z,8.90
2023-05-01T04:23:46.292Z,8.62
2023-05-01T04:26:13.799Z,8.79
2023-05-01T04:28:41.274Z,8.73
2023-05-01T04:31:08.782Z,8.79
2023-05-01T04:33:36.350Z,8.64
2023-05-01T04:36:03.886Z,8.49
2023-05-01T04:38:32.849Z,8.64
2023-05-01T04:41:00.299Z,8.57
2023-05-01T04:43:27.788Z,8.74
2023-05-01T04:45:55.499Z,8.68
2023-05-01T04:48:23.026Z,8.87
2023-05-01T04:50:50.610Z,8.54
2023-05-01T04:53:18.082Z,8.86
2023-05-01T04:55:46.866Z,8.79
2023-05-01T04:58:14.311Z,8.87
2023-05-01T05:00:41.855Z,8.86
2023-05-01T05:03:09.344Z,8.90
2023-05-01T05:05:37.021Z,9.00
2023-05-01T05:08:04.680Z,9.01
2023-05-01T05:10:32.210Z,8.99
2023-05-01T05:13:00.996Z,8.73
2023-05-01T05:15:28.549Z,8.55
2023-05-01T05:17:56.742Z,8.49
2023-05-01T05:20:24.400Z,8.64
2023-05-01T05:22:52.221Z,8.83
2023-05-01T05:25:20.028Z,8.72
2023-05-01T05:27:47.467Z,8.83
2023-05-01T05:30:16.315Z,9.38
2023-05-01T05:32:44.339Z,9.65
2023-05-01T05:35:11.869Z,9.25
2023-05-01T05:37:39.570Z,9.60
2023-05-01T05:40:08.435Z,9.44
2023-05-01T05:42:36.244Z,9.71
2023-05-01T05:45:03.711Z,9.50
2023-05-01T05:47:32.521Z,9.61
2023-05-01T05:49:59.977Z,9.55
2023-05-01T05:52:27.528Z,9.65
2023-05-01T05:54:55.002Z,9.40
2023-05-01T05:57:22.558Z,9.34
2023-05-01T05:59:50.291Z,9.57
2023-05-01T06:02:17.839Z,9.40
2023-05-01T06:04:46.678Z,9.57
2023-05-01T06:07:14.125Z,9.67
2023-05-01T06:09:41.809Z,9.61
2023-05-01T06:12:09.260Z,9.58
2023-05-01T06:14:36.703Z,9.67
2023-05-01T06:17:04.379Z,9.76
2023-05-01T06:19:31.835Z,9.72
2023-05-01T06:22:00.740Z,9.63
2023-05-01T06:24:28.377Z,9.79
2023-05-01T06:26:55.850Z,9.70
2023-05-01T06:29:23.354Z,9.76
2023-05-01T06:31:51.077Z,9.88
2023-05-01T06:34:18.708Z,9.94
2023-05-01T06:36:46.156Z,10.07
2023-05-01T06:39:14.991Z,9.89
2023-05-01T06:41:42.451Z,9.98
2023-05-01T06:44:09.886Z,9.94
2023-05-01T06:46:37.441Z,9.92
2023-05-01T06:49:05.230Z,9.90
2023-05-01T06:51:32.665Z,9.98
2023-05-01T06:54:00.365Z,10.05
2023-05-01T06:56:29.209Z,10.26
2023-05-01T06:58:56.743Z,10.17
2023-05-01T07:01:24.510Z,10.46
2023-05-01T07:03:52.097Z,10.44
2023-05-01T07:06:19.654Z,10.72
2023-05-01T07:08:47.150Z,10.78
2023-05-01T07:11:14.728Z,10.83
2023-05-01T07:13:43.710Z,10.79
2023-05-01T07:16:13.735Z,10.77
2023-05-01T07:18:41.251Z,10.84
2023-05-01T07:21:10.058Z,10.93
2023-05-01T07:23:37.535Z,10.91
2023-05-01T07:26:05.615Z,11.02
2023-05-01T07:28:33.179Z,11.04
2023-05-01T07:31:02.375Z,11.06
2023-05-01T07:33:29.825Z,10.97
2023-05-01T07:35:57.883Z,11.08
2023-05-01T07:38:25.325Z,11.23
2023-05-01T07:40:53.537Z,11.25
2023-05-01T07:43:21.077Z,11.46
2023-05-01T07:45:55.992Z,11.51
2023-05-01T07:48:24.783Z,11.39
2023-05-01T07:50:52.238Z,11.30
2023-05-01T07:53:19.843Z,11.46
2023-05-01T07:55:47.321Z,11.34
2023-05-01T07:58:14.796Z,11.43
2023-05-01T08:00:44.917Z,11.61
2023-05-01T08:03:12.914Z,11.55
2023-05-01T08:05:42.449Z,11.74
2023-05-01T08:08:10.123Z,11.90
2023-05-01T08:10:37.612Z,12.04
2023-05-01T08:13:05.068Z,12.14
2023-05-01T08:15:32.546Z,12.05
2023-05-01T08:18:00.097Z,11.93
2023-05-01T08:20:27.676Z,11.88
2023-05-01T08:22:56.499Z,12.04
2023-05-01T08:25:24.528Z,12.06
2023-05-01T08:27:52.582Z,12.17
2023-05-01T08:30:20.492Z,12.15
2023-05-01T08:32:48.090Z,12.02
2023-05-01T08:35:15.788Z,11.89
2023-05-01T08:37:43.383Z,12.32
2023-05-01T08:40:12.868Z,12.10
2023-05-01T08:42:40.343Z,12.33
2023-05-01T08:45:09.994Z,12.45
2023-05-01T08:47:38.320Z,12.37
2023-05-01T08:50:10.466Z,12.41
2023-05-01T08:52:41.420Z,12.43
2023-05-01T08:55:13.689Z,12.34
2023-05-01T08:57:46.492Z,12.34
2023-05-01T09:00:19.356Z,12.27
2023-05-01T09:02:49.092Z,12.30
2023-05-01T09:05:17.575Z,12.54
2023-05-01T09:07:45.885Z,12.35
2023-05-01T09:10:16.553Z,12.38
2023-05-01T09:12:46.319Z,12.72
2023-05-01T09:15:14.340Z,12.58
2023-05-01T09:17:44.117Z,12.66
2023-05-01T09:20:12.446Z,12.48
2023-05-01T09:22:40.222Z,12.33
2023-05-01T09:25:10.281Z,12.39
2023-05-01T09:27:39.288Z,12.26
2023-05-01T09:30:09.410Z,12.32
2023-05-01T09:32:37.678Z,12.35
2023-05-01T09:35:12.563Z,12.37
2023-05-01T09:37:40.487Z,12.37
2023-05-01T09:40:09.789Z,12.35
2023-05-01T09:42:40.407Z,12.38
2023-05-01T09:45:14.010Z,12.41
2023-05-01T09:47:42.553Z,12.42
2023-05-01T09:50:11.366Z,12.45
2023-05-01T09:52:38.821Z,12.46
2023-05-01T09:55:13.961Z,12.39
2023-05-01T09:57:43.915Z,12.37
2023-05-01T10:00:13.979Z,12.29
2023-05-01T10:02:42.596Z,12.33
2023-05-01T10:05:11.137Z,12.28
2023-05-01T10:07:39.197Z,12.22
2023-05-01T10:10:19.498Z,12.09
2023-05-01T10:12:48.990Z,11.68
2023-05-01T10:15:25.315Z,11.81
2023-05-01T10:17:54.942Z,11.86
2023-05-01T10:20:23.026Z,11.83
2023-05-01T10:22:50.563Z,11.73
2023-05-01T10:25:18.914Z,11.94
2023-05-01T10:27:48.438Z,11.79
2023-05-01T10:30:18.055Z,11.55
2023-05-01T10:32:47.253Z,11.78
2023-05-01T10:35:20.298Z,11.70
2023-05-01T10:37:49.896Z,11.59
2023-05-01T10:40:46.815Z,11.63
2023-05-01T10:43:20.803Z,11.61
2023-05-01T10:45:49.505Z,11.35
2023-05-01T10:48:59.305Z,11.39
2023-05-01T10:51:28.524Z,11.22
2023-05-01T10:54:28.114Z,11.27
2023-05-01T10:56:57.282Z,11.26
2023-05-01T10:59:26.339Z,11.39
2023-05-01T11:01:54.325Z,11.23
2023-05-01T11:04:51.070Z,11.31
2023-05-01T11:07:19.867Z,11.39
2023-05-01T11:09:49.085Z,10.98
2023-05-01T11:12:37.720Z,11.11
2023-05-01T11:15:08.276Z,11.21
2023-05-01T11:17:49.586Z,11.29
2023-05-01T11:21:00.502Z,11.19
2023-05-01T11:23:27.998Z,11.31
2023-05-01T11:26:08.253Z,11.37
2023-05-01T11:28:39.211Z,11.26
2023-05-01T11:31:08.208Z,11.24
2023-05-01T11:33:37.097Z,11.19
2023-05-01T11:36:05.146Z,11.00
2023-05-01T11:38:32.671Z,11.16
2023-05-01T11:41:02.737Z,10.98
2023-05-01T11:43:30.415Z,10.98
2023-05-01T11:46:02.367Z,11.09
2023-05-01T11:48:32.495Z,10.78
2023-05-01T11:51:00.099Z,11.06
2023-05-01T11:55:53.576Z,10.90
2023-05-01T11:58:34.637Z,11.32
2023-05-01T12:01:03.220Z,10.82
2023-05-01T12:03:41.284Z,10.39
2023-05-01T12:06:10.721Z,10.70
2023-05-01T12:08:38.370Z,10.72
2023-05-01T12:11:07.854Z,10.49
2023-05-01T12:13:36.347Z,10.86
2023-05-01T12:16:05.776Z,10.80
2023-05-01T12:18:34.798Z,10.74
2023-05-01T12:21:02.346Z,11.14
2023-05-01T12:23:34.655Z,11.02
2023-05-01T12:26:03.845Z,10.93
2023-05-01T12:28:32.006Z,10.96
2023-05-01T12:31:05.370Z,11.30
2023-05-01T12:33:34.561Z,11.23
2023-05-01T12:36:11.067Z,10.89
2023-05-01T12:38:38.849Z,10.59
2023-05-01T12:41:09.318Z,11.07
2023-05-01T12:43:38.414Z,10.96
2023-05-01T12:46:07.601Z,10.57
2023-05-01T12:48:40.091Z,10.90
2023-05-01T12:51:08.124Z,10.98
2023-05-01T12:53:35.811Z,10.63
2023-05-01T12:56:03.470Z,10.52
2023-05-01T12:58:37.803Z,10.86
2023-05-01T13:01:06.411Z,10.72
2023-05-01T13:03:39.397Z,10.43
2023-05-01T13:06:08.968Z,10.97
2023-05-01T13:08:39.370Z,10.83
2023-05-01T13:11:12.944Z,10.82
2023-05-01T13:13:41.565Z,10.76
2023-05-01T13:16:10.480Z,10.48
2023-05-01T13:18:47.046Z,11.09
2023-05-01T13:21:16.153Z,11.02
2023-05-01T13:23:56.299Z,10.94
2023-05-01T13:26:28.950Z,11.22
2023-05-01T13:28:57.205Z,11.08
2023-05-01T13:31:25.074Z,10.76
2023-05-01T13:33:55.303Z,10.79
2023-05-01T13:36:26.865Z,11.12
2023-05-01T13:38:57.160Z,11.12
2023-05-01T13:41:26.459Z,11.15
2023-05-01T13:43:55.881Z,11.04
2023-05-01T13:46:24.625Z,11.18
2023-05-01T13:48:53.596Z,11.44
2023-05-01T13:51:23.646Z,11.61
2023-05-01T13:53:53.150Z,11.83
2023-05-01T13:56:21.439Z,11.92
2023-05-01T13:58:49.968Z,11.47
2023-05-01T14:01:20.020Z,11.81
2023-05-01T14:03:48.215Z,11.70
2023-05-01T14:06:20.592Z,11.60
2023-05-01T14:08:49.775Z,11.23
2023-05-01T14:11:18.058Z,11.34
2023-05-01T14:13:47.507Z,11.45
2023-05-01T14:16:23.183Z,11.38
2023-05-01T14:18:53.330Z,11.78
2023-05-01T14:21:23.921Z,11.67
2023-05-01T14:23:53.438Z,11.47
2023-05-01T14:26:22.871Z,11.86
2023-05-01T14:28:50.763Z,11.79
2023-05-01T14:31:26.927Z,11.93
2023-05-01T14:33:57.327Z,11.54
2023-05-01T14:36:28.190Z,11.63
2023-05-01T14:38:57.397Z,11.53
2023-05-01T14:41:25.458Z,11.45
2023-05-01T14:43:54.004Z,11.72
2023-05-01T14:46:27.877Z,11.73
2023-05-01T14:48:55.662Z,11.75
2023-05-01T14:51:23.206Z,11.59
2023-05-01T14:53:52.308Z,11.63
2023-05-01T14:56:20.036Z,11.68
2023-05-01T14:58:47.777Z,11.70
2023-05-01T15:01:15.665Z,11.69
2023-05-01T15:03:43.804Z,11.72
2023-05-01T15:06:11.637Z,11.45
2023-05-01T15:08:39.135Z,11.64
2023-05-01T15:11:08.504Z,11.55
2023-05-01T15:13:36.593Z,11.41
2023-05-01T15:16:04.198Z,11.68
2023-05-01T15:18:31.667Z,11.79
2023-05-01T15:20:59.154Z,11.80
2023-05-01T15:23:27.309Z,11.97
2023-05-01T15:25:55.034Z,11.80
2023-05-01T15:28:24.674Z,11.72
2023-05-01T15:30:53.639Z,11.55
2023-05-01T15:33:22.154Z,11.84
2023-05-01T15:35:50.967Z,11.80
2023-05-01T15:38:20.291Z,11.73
2023-05-01T15:40:49.718Z,11.91
2023-05-01T15:43:17.182Z,11.73
2023-05-01T15:45:46.146Z,11.80
2023-05-01T15:48:13.680Z,11.80
2023-05-01T15:50:41.253Z,12.04
2023-05-01T15:53:09.453Z,12.27
2023-05-01T15:55:37.031Z,12.01
2023-05-01T15:58:04.626Z,11.87
2023-05-01T16:00:32.770Z,11.90
2023-05-01T16:03:04.161Z,12.11
2023-05-01T16:05:32.034Z,12.15
2023-05-01T16:08:01.596Z,11.64
2023-05-01T16:10:29.120Z,11.72
2023-05-01T16:12:56.560Z,11.97
2023-05-01T16:15:24.236Z,11.75
2023-05-01T16:17:54.110Z,12.03
2023-05-01T16:20:24.766Z,12.08
2023-05-01T16:22:52.364Z,12.01
2023-05-01T16:25:19.949Z,12.15
2023-05-01T16:27:47.587Z,11.88
2023-05-01T16:30:15.484Z,11.82
2023-05-01T16:32:44.425Z,11.92
2023-05-01T16:35:12.554Z,11.68
2023-05-01T16:37:41.322Z,11.78
2023-05-01T16:40:10.154Z,11.84
2023-05-01T16:42:38.688Z,12.19
2023-05-01T16:45:08.503Z,12.12
2023-05-01T16:47:36.861Z,12.17
2023-05-01T16:50:09.783Z,12.29
2023-05-01T16:52:38.985Z,12.04
2023-05-01T16:55:09.900Z,11.98
2023-05-01T16:57:37.368Z,11.95
2023-05-01T17:00:06.228Z,11.94
2023-05-01T17:02:34.087Z,11.81
2023-05-01T17:05:02.949Z,11.94
2023-05-01T17:07:30.483Z,12.11
2023-05-01T17:09:58.452Z,12.17
2023-05-01T17:12:27.732Z,12.15
2023-05-01T17:14:56.378Z,12.32
2023-05-01T17:17:24.871Z,12.00
2023-05-01T17:19:52.536Z,11.94
2023-05-01T17:22:19.989Z,12.06
2023-05-01T17:24:47.827Z,11.90
2023-05-01T17:27:15.464Z,11.72
2023-05-01T17:29:44.295Z,11.86
2023-05-01T17:34:40.082Z,11.83
2023-05-01T17:37:08.526Z,11.92
2023-05-01T17:39:35.934Z,11.72
2023-05-01T17:42:04.297Z,11.64
2023-05-01T17:44:32.962Z,11.51
2023-05-01T17:47:01.760Z,11.66
2023-05-01T17:49:29.284Z,11.45
2023-05-01T17:51:56.929Z,11.89
2023-05-01T17:54:24.522Z,12.00
2023-05-01T17:56:51.973Z,11.89
2023-05-01T17:59:19.798Z,11.91
2023-05-01T18:01:48.267Z,11.83
2023-05-01T18:04:17.098Z,12.06
2023-05-01T18:06:44.811Z,12.09
2023-05-01T18:09:12.316Z,12.11
2023-05-01T18:11:39.763Z,12.11
2023-05-01T18:14:07.223Z,12.08
2023-05-01T18:16:34.756Z,12.08
2023-05-01T18:19:02.390Z,12.05
2023-05-01T18:21:31.294Z,12.05
2023-05-01T18:23:58.810Z,11.99
2023-05-01T18:26:27.529Z,12.00
2023-05-01T18:28:54.959Z,11.98
2023-05-01T18:31:22.546Z,11.94
2023-05-01T18:33:50.062Z,11.83
2023-05-01T18:36:17.566Z,11.90
2023-05-01T18:38:46.409Z,11.90
2023-05-01T18:41:13.914Z,11.88
2023-05-01T18:43:41.371Z,11.83
2023-05-01T18:46:08.893Z,11.82
2023-05-01T18:48:36.478Z,11.81
2023-05-01T18:51:08.551Z,11.80
2023-05-01T18:53:36.790Z,11.77
2023-05-01T18:56:05.910Z,11.72
2023-05-01T18:58:33.403Z,11.74
2023-05-01T19:01:00.888Z,11.70
2023-05-01T19:03:28.332Z,11.69
2023-05-01T19:05:55.791Z,11.63
2023-05-01T19:08:23.309Z,11.61
2023-05-01T19:10:50.831Z,11.61
2023-05-01T19:13:19.652Z,11.57
2023-05-01T19:15:47.296Z,11.52
2023-05-01T19:18:16.037Z,11.52
2023-05-01T19:20:43.597Z,11.53
2023-05-01T19:23:11.074Z,11.50
2023-05-01T19:25:38.813Z,11.45
2023-05-01T19:28:06.422Z,11.42
2023-05-01T19:30:35.290Z,11.39
2023-05-01T19:33:02.800Z,11.38
2023-05-01T19:35:30.337Z,11.34
2023-05-01T19:37:59.214Z,11.28
2023-05-01T19:40:26.685Z,11.25
2023-05-01T19:42:54.243Z,11.26
2023-05-01T19:45:21.729Z,11.20
2023-05-01T19:47:50.687Z,11.23
2023-05-01T19:50:18.995Z,11.21
2023-05-01T19:52:46.475Z,11.20
2023-05-01T19:55:16.820Z,11.17
2023-05-01T19:57:44.471Z,11.15
2023-05-01T20:00:12.847Z,11.14
2023-05-01T20:02:41.505Z,11.10
2023-05-01T20:05:11.318Z,11.11
2023-05-01T20:07:38.821Z,11.09
2023-05-01T20:10:07.267Z,11.03
2023-05-01T20:12:34.760Z,11.01
2023-05-01T20:15:02.241Z,10.99
2023-05-01T20:17:29.959Z,11.02
2023-05-01T20:19:57.718Z,10.99
2023-05-01T20:22:26.840Z,10.94
2023-05-01T20:24:54.508Z,10.97
2023-05-01T20:27:22.067Z,10.90
2023-05-01T20:29:49.648Z,10.89
2023-05-01T20:32:18.163Z,10.81
2023-05-01T20:34:45.511Z,10.86
2023-05-01T20:37:12.956Z,10.81
2023-05-01T20:39:41.932Z,10.78
2023-05-01T20:42:09.425Z,10.73
2023-05-01T20:44:36.881Z,10.70
2023-05-01T20:47:04.378Z,10.70
2023-05-01T20:49:31.874Z,10.65
2023-05-01T20:51:59.719Z,10.68
2023-05-01T20:54:31.515Z,10.69
2023-05-01T20:57:01.774Z,10.57
2023-05-01T20:59:29.295Z,10.55
2023-05-01T21:01:57.001Z,10.59
2023-05-01T21:04:24.492Z,10.58
2023-05-01T21:06:53.030Z,10.51
2023-05-01T21:09:20.503Z,10.56
2023-05-01T21:11:48.030Z,10.48
2023-05-01T21:14:17.124Z,10.42
2023-05-01T21:16:44.664Z,10.46
2023-05-01T21:19:12.897Z,10.41
2023-05-01T21:21:40.606Z,10.39
2023-05-01T21:24:09.136Z,10.41
2023-05-01T21:26:36.871Z,10.33
2023-05-01T21:29:04.357Z,10.26
2023-05-01T21:31:33.491Z,10.31
2023-05-01T21:34:03.254Z,10.26
2023-05-01T21:36:31.402Z,10.25
2023-05-01T21:39:00.918Z,10.30
2023-05-01T21:41:28.401Z,10.22
2023-05-01T21:43:55.868Z,10.23
2023-05-01T21:46:23.355Z,10.17
2023-05-01T21:48:52.407Z,10.15
2023-05-01T21:51:26.764Z,10.14
2023-05-01T21:53:54.277Z,10.14
2023-05-01T21:56:22.452Z,10.16
2023-05-01T21:58:51.078Z,10.13
2023-05-01T22:01:20.230Z,10.08
2023-05-01T22:03:49.629Z,10.03
2023-05-01T22:06:18.650Z,10.05
2023-05-01T22:08:46.154Z,9.99
2023-05-01T22:11:13.700Z,10.00
2023-05-01T22:13:41.198Z,10.00
2023-05-01T22:16:08.979Z,9.92
2023-05-01T22:18:36.536Z,9.91
2023-05-01T22:21:04.487Z,9.92
2023-05-01T22:23:33.282Z,9.95
2023-05-01T22:26:00.876Z,9.83
2023-05-01T22:28:28.378Z,9.89
2023-05-01T22:30:55.927Z,9.86
2023-05-01T22:33:23.458Z,9.77
2023-05-01T22:35:50.934Z,9.84
2023-05-01T22:38:18.504Z,9.80
2023-05-01T22:40:47.278Z,9.77
2023-05-01T22:43:14.740Z,9.76
2023-05-01T22:45:42.774Z,9.75
2023-05-01T22:48:10.521Z,9.75
2023-05-01T22:50:38.106Z,9.76
2023-05-01T22:53:05.626Z,9.73
2023-05-01T22:55:33.815Z,9.68
2023-05-01T22:58:02.609Z,9.63
2023-05-01T23:00:30.310Z,9.69
2023-05-01T23:02:57.858Z,9.62
2023-05-01T23:05:25.410Z,9.64
2023-05-01T23:07:52.878Z,9.64
2023-05-01T23:10:27.721Z,9.59
2023-05-01T23:12:55.369Z,9.57
2023-05-01T23:15:25.859Z,9.58
2023-05-01T23:17:53.576Z,9.54
2023-05-01T23:20:23.502Z,9.55
2023-05-01T23:22:51.781Z,9.54
2023-05-01T23:25:24.196Z,9.47
2023-05-01T23:27:53.452Z,9.36
2023-05-01T23:30:22.289Z,9.37
2023-05-01T23:32:51.510Z,9.44
2023-05-01T23:35:23.674Z,9.42
2023-05-01T23:37:52.740Z,9.37
2023-05-01T23:40:20.529Z,9.34
2023-05-01T23:42:48.287Z,9.33
2023-05-01T23:45:16.946Z,9.26
2023-05-01T23:47:44.365Z,9.33
2023-05-01T23:50:14.308Z,9.28
2023-05-01T23:52:41.765Z,9.24
2023-05-01T23:55:09.366Z,9.26
2023-05-01T23:57:36.974Z,9.20
